Time;durP1;ratioP1;P1;durP2;ratioP2;P2;SDS_P1;SDS_P2;PMS_P1;PMS_P2;Temp;Humidity;BMP_temperature;BMP_pressure;BME280_temperature;BME280_humidity;BME280_pressure;Samples;Min_cycle;Max_cycle;Signal;HPM_P1;HPM_P2
2021/12/19 00:04:38;;;;;;;;;;;;;;;;;;;;;
2021/12/19 00:09:41;;;;;;;12.53;7.97;;;8.10;99.90;;;;;;4973862;28;20298;-67
2021/12/19 00:12:06;;;;;;;12.93;8.83;;;8.20;99.90;;;;;;4978535;28;20219;-68
2021/12/19 00:14:32;;;;;;;12.73;8.60;;;8.20;99.90;;;;;;4979234;28;20181;-68
2021/12/19 00:16:58;;;;;;;14.60;9.13;;;8.20;99.90;;;;;;4982127;28;20566;-68
2021/12/19 00:19:26;;;;;;;14.10;9.30;;;8.10;99.90;;;;;;4971545;28;20184;-68
2021/12/19 00:21:52;;;;;;;13.40;9.27;;;8.10;99.90;;;;;;4964773;28;20207;-67
2021/12/19 00:24:18;;;;;;;16.20;9.93;;;8.10;99.90;;;;;;4968917;28;20184;-67
2021/12/19 00:26:45;;;;;;;13.90;9.43;;;8.10;99.90;;;;;;5036912;28;20180;-67
2021/12/19 00:29:12;;;;;;;14.00;9.43;;;8.10;99.90;;;;;;4981064;28;20233;-68
2021/12/19 00:31:38;;;;;;;14.70;9.67;;;8.10;99.90;;;;;;5010435;28;20380;-67
2021/12/19 00:34:04;;;;;;;15.07;9.37;;;8.10;99.90;;;;;;4961595;28;20490;-66
2021/12/19 00:36:35;;;;;;;14.10;9.57;;;8.10;99.90;;;;;;4959965;28;20196;-67
2021/12/19 00:39:01;;;;;;;14.60;9.50;;;8.00;99.90;;;;;;4957116;28;20187;-67
2021/12/19 00:41:28;;;;;;;14.43;9.27;;;8.10;99.90;;;;;;4966439;28;20183;-68
2021/12/19 00:44:08;;;;;;;15.63;9.60;;;8.10;99.90;;;;;;4965141;28;20187;-67
2021/12/19 00:46:45;;;;;;;14.10;9.17;;;8.10;99.90;;;;;;4965574;28;20267;-68
2021/12/19 00:49:11;;;;;;;13.60;9.10;;;8.10;99.90;;;;;;4957223;28;20219;-68
2021/12/19 00:51:40;;;;;;;14.47;9.43;;;8.10;99.90;;;;;;4971457;28;20205;-67
2021/12/19 00:54:09;;;;;;;15.90;10.37;;;8.10;99.90;;;;;;4970381;28;20227;-67
2021/12/19 00:56:42;;;;;;;16.03;10.30;;;8.10;99.90;;;;;;4963094;28;20215;-68
2021/12/19 00:59:11;;;;;;;15.93;10.10;;;8.10;99.90;;;;;;4964171;28;20195;-68
2021/12/19 01:01:39;;;;;;;16.37;10.17;;;8.10;99.90;;;;;;4967396;28;20188;-68
2021/12/19 01:04:11;;;;;;;15.53;10.17;;;8.10;99.90;;;;;;4964383;28;21075;-67
2021/12/19 01:06:38;;;;;;;16.87;10.17;;;8.10;99.90;;;;;;4967372;28;20275;-68
2021/12/19 01:09:07;;;;;;;17.07;10.87;;;8.10;99.90;;;;;;4961958;28;20184;-68
2021/12/19 01:11:34;;;;;;;15.67;10.00;;;8.10;99.90;;;;;;4964309;28;20306;-68
2021/12/19 01:14:00;;;;;;;15.93;10.57;;;8.10;99.90;;;;;;4967620;28;20184;-68
2021/12/19 01:16:28;;;;;;;19.60;11.73;;;8.10;99.90;;;;;;4955202;28;20193;-68
2021/12/19 01:18:57;;;;;;;17.83;11.70;;;8.10;99.90;;;;;;4967581;28;20230;-67
2021/12/19 01:21:25;;;;;;;18.97;12.20;;;8.10;99.90;;;;;;4968558;28;20556;-67
2021/12/19 01:23:55;;;;;;;19.23;12.10;;;8.10;99.90;;;;;;4968496;28;20276;-68
2021/12/19 01:26:21;;;;;;;18.27;11.67;;;8.10;99.90;;;;;;4973355;28;20176;-68
2021/12/19 01:28:46;;;;;;;17.97;11.60;;;8.10;99.90;;;;;;4965438;28;20354;-69
2021/12/19 01:31:12;;;;;;;17.30;11.07;;;8.10;99.90;;;;;;4961049;28;20258;-66
2021/12/19 01:33:38;;;;;;;19.00;11.93;;;8.10;99.90;;;;;;4967204;28;20206;-68
2021/12/19 01:36:07;;;;;;;19.57;11.60;;;8.10;99.90;;;;;;4955667;28;20209;-68
2021/12/19 01:38:36;;;;;;;21.80;12.40;;;8.10;99.90;;;;;;4982301;28;20165;-68
2021/12/19 01:41:02;;;;;;;19.50;11.80;;;8.20;99.90;;;;;;4966890;28;20177;-68
2021/12/19 01:43:28;;;;;;;20.20;12.47;;;8.20;99.90;;;;;;4968289;28;20208;-68
2021/12/19 01:45:56;;;;;;;21.03;12.77;;;8.20;99.90;;;;;;4970750;28;20183;-66
2021/12/19 01:48:25;;;;;;;19.00;11.83;;;8.20;99.90;;;;;;4968286;28;20176;-68
2021/12/19 01:50:52;;;;;;;18.80;12.47;;;8.10;99.90;;;;;;4977918;28;20217;-66
2021/12/19 01:53:18;;;;;;;19.27;12.50;;;8.10;99.90;;;;;;4972494;28;20173;-68
2021/12/19 01:55:46;;;;;;;20.47;12.07;;;8.10;99.90;;;;;;4972994;28;20180;-68
2021/12/19 01:58:17;;;;;;;21.93;13.23;;;8.10;99.90;;;;;;4987947;28;20294;-68
2021/12/19 02:00:56;;;;;;;21.50;12.63;;;8.20;99.90;;;;;;4958281;28;20231;-67
2021/12/19 02:03:22;;;;;;;21.93;12.33;;;8.10;99.90;;;;;;4969650;28;20291;-68
2021/12/19 02:05:49;;;;;;;21.90;12.53;;;8.10;99.90;;;;;;4970097;28;20191;-67
2021/12/19 02:08:17;;;;;;;20.80;12.77;;;8.10;99.90;;;;;;4965727;28;20271;-68
2021/12/19 02:10:46;;;;;;;20.67;12.83;;;8.10;99.90;;;;;;4980173;28;20211;-68
2021/12/19 02:13:16;;;;;;;20.47;13.03;;;8.10;99.90;;;;;;4959242;28;20172;-67
2021/12/19 02:15:42;;;;;;;22.50;13.50;;;8.10;99.90;;;;;;4967137;28;20200;-68
2021/12/19 02:18:20;;;;;;;21.53;13.17;;;8.10;99.90;;;;;;4976914;28;20203;-68
2021/12/19 02:20:57;;;;;;;19.53;12.43;;;8.10;99.90;;;;;;4955872;28;20206;-67
2021/12/19 02:23:27;;;;;;;22.73;12.87;;;8.10;99.90;;;;;;4997304;28;20291;-68
2021/12/19 02:25:54;;;;;;;20.40;12.97;;;8.10;99.90;;;;;;4993255;28;20188;-68
2021/12/19 02:28:21;;;;;;;23.03;13.03;;;8.20;99.90;;;;;;4964451;28;20196;-67
2021/12/19 02:30:50;;;;;;;22.13;13.07;;;8.10;99.90;;;;;;4970274;28;20264;-67
2021/12/19 02:33:20;;;;;;;20.40;12.23;;;8.20;99.90;;;;;;4972616;28;20187;-68
2021/12/19 02:36:00;;;;;;;19.60;11.17;;;8.20;99.90;;;;;;4966473;28;20201;-68
2021/12/19 02:49:23;;;;;;;20.97;12.47;;;8.20;99.90;;;;;;4961891;28;20222;-67
2021/12/19 02:51:55;;;;;;;22.67;12.47;;;8.20;99.90;;;;;;5014755;28;20775;-67
2021/12/19 02:54:22;;;;;;;21.43;12.00;;;8.20;99.90;;;;;;4983022;28;20192;-68
2021/12/19 02:56:49;;;;;;;20.30;12.37;;;8.20;99.90;;;;;;4984328;28;20192;-68
2021/12/19 02:59:17;;;;;;;21.17;12.97;;;8.30;99.90;;;;;;4974498;28;20187;-68
2021/12/19 03:01:45;;;;;;;25.63;13.00;;;8.30;99.90;;;;;;4963886;28;20212;-68
2021/12/19 03:04:11;;;;;;;25.40;14.40;;;8.30;99.90;;;;;;4972001;28;20306;-68
2021/12/19 03:06:45;;;;;;;25.73;14.17;;;8.30;99.90;;;;;;5012497;28;20185;-67
2021/12/19 03:09:11;;;;;;;22.67;13.57;;;8.20;99.90;;;;;;4973979;28;20212;-68
2021/12/19 03:19:41;;;;;;;23.73;13.10;;;8.20;99.90;;;;;;5014414;28;20195;-68
2021/12/19 03:22:09;;;;;;;23.83;13.40;;;8.20;99.90;;;;;;4964394;28;20187;-68
2021/12/19 03:24:35;;;;;;;23.97;13.50;;;8.20;99.90;;;;;;4960497;28;20181;-68
2021/12/19 03:27:00;;;;;;;25.57;14.50;;;8.20;99.90;;;;;;4957862;28;20205;-68
2021/12/19 03:29:26;;;;;;;23.60;13.00;;;8.20;99.90;;;;;;4974542;28;20215;-68
2021/12/19 03:31:51;;;;;;;27.47;14.83;;;8.20;99.90;;;;;;4973353;28;20231;-67
2021/12/19 03:34:17;;;;;;;19.17;11.53;;;8.20;99.90;;;;;;4975232;28;20176;-68
2021/12/19 03:36:45;;;;;;;25.53;12.57;;;8.10;99.90;;;;;;4974759;28;20330;-68
2021/12/19 03:39:24;;;;;;;25.97;12.53;;;8.20;99.90;;;;;;4961991;28;20257;-68
2021/12/19 03:41:54;;;;;;;23.00;13.53;;;8.20;99.90;;;;;;4987136;28;20181;-68
2021/12/19 03:44:20;;;;;;;25.17;13.13;;;8.20;99.90;;;;;;4968432;28;20592;-68
2021/12/19 03:46:48;;;;;;;21.83;12.70;;;8.10;99.90;;;;;;4959413;28;20180;-67
2021/12/19 03:49:18;;;;;;;23.43;13.07;;;8.10;99.90;;;;;;4961998;28;20268;-68
2021/12/19 03:51:43;;;;;;;22.63;12.00;;;8.10;99.90;;;;;;5013296;28;20280;-68
2021/12/19 03:54:09;;;;;;;22.03;12.47;;;8.10;99.90;;;;;;4957739;28;20207;-68
2021/12/19 03:56:37;;;;;;;21.10;11.60;;;8.10;99.90;;;;;;4974030;28;20222;-68
2021/12/19 03:59:03;;;;;;;22.83;11.77;;;8.10;99.90;;;;;;4972784;28;20179;-69
2021/12/19 04:01:29;;;;;;;21.23;11.60;;;8.10;99.90;;;;;;4968580;28;20180;-68
2021/12/19 04:03:55;;;;;;;20.67;11.33;;;8.10;99.90;;;;;;4968918;28;20495;-67
2021/12/19 04:06:22;;;;;;;20.43;11.10;;;8.10;99.90;;;;;;4977750;28;20217;-65
2021/12/19 04:08:51;;;;;;;22.10;11.27;;;8.10;99.90;;;;;;4964544;28;20183;-68
2021/12/19 04:11:19;;;;;;;18.97;10.73;;;8.10;99.90;;;;;;4985708;28;20283;-67
2021/12/19 04:13:46;;;;;;;27.00;10.03;;;8.10;99.90;;;;;;4979732;28;20177;-68
2021/12/19 04:16:14;;;;;;;17.33;10.27;;;8.00;99.90;;;;;;4965763;28;20200;-68
2021/12/19 04:18:40;;;;;;;19.27;9.83;;;8.00;99.90;;;;;;4965938;28;20172;-68
2021/12/19 04:21:08;;;;;;;16.77;9.43;;;8.00;99.90;;;;;;4967784;28;20241;-68
2021/12/19 04:23:36;;;;;;;18.17;9.73;;;8.00;99.90;;;;;;5018231;28;20208;-68
2021/12/19 04:26:02;;;;;;;19.70;10.40;;;8.00;99.90;;;;;;4975527;28;20191;-68
2021/12/19 04:28:29;;;;;;;16.20;9.53;;;8.00;99.90;;;;;;4968052;28;20188;-67
2021/12/19 04:30:55;;;;;;;15.17;9.03;;;8.00;99.90;;;;;;4979306;28;20204;-67
2021/12/19 04:33:25;;;;;;;15.73;9.37;;;8.00;99.90;;;;;;4964061;28;20173;-68
2021/12/19 04:35:59;;;;;;;16.50;9.67;;;8.00;99.90;;;;;;4974378;28;20214;-68
2021/12/19 04:53:02;;;;;;;14.90;8.37;;;8.00;99.90;;;;;;4966038;28;20222;-67
2021/12/19 04:58:20;;;;;;;11.93;7.43;;;7.90;99.90;;;;;;4960103;28;20180;-68
2021/12/19 05:01:41;;;;;;;12.60;7.67;;;8.00;99.90;;;;;;4960061;28;20191;-67
2021/12/19 05:06:45;;;;;;;12.87;7.20;;;8.00;99.90;;;;;;4955045;28;20204;-66
2021/12/19 05:14:45;;;;;;;11.60;6.97;;;8.00;99.90;;;;;;4964045;28;20180;-65
2021/12/19 05:17:17;;;;;;;11.67;6.80;;;8.00;99.90;;;;;;4971859;28;20200;-66
2021/12/19 05:20:04;;;;;;;11.40;6.70;;;8.00;99.90;;;;;;4970094;28;20460;-66
2021/12/19 05:22:36;;;;;;;10.80;7.03;;;8.00;99.90;;;;;;4992528;28;20279;-66
2021/12/19 05:25:14;;;;;;;10.17;6.50;;;8.00;99.90;;;;;;4964146;28;20188;-67
2021/12/19 05:27:53;;;;;;;10.77;6.57;;;8.00;99.90;;;;;;4973068;28;20334;-66
2021/12/19 05:30:25;;;;;;;10.50;6.80;;;8.00;99.90;;;;;;4968983;28;20272;-67
2021/12/19 05:32:53;;;;;;;9.93;6.30;;;8.00;99.90;;;;;;4967329;28;20203;-67
2021/12/19 05:35:26;;;;;;;8.17;5.50;;;8.00;99.90;;;;;;4962292;28;20187;-67
2021/12/19 05:46:13;;;;;;;10.67;6.20;;;8.00;99.90;;;;;;5014634;28;20238;-66
2021/12/19 05:48:39;;;;;;;9.50;5.93;;;8.00;99.90;;;;;;4969191;28;20196;-66
2021/12/19 05:51:07;;;;;;;12.27;7.03;;;8.00;99.90;;;;;;4967959;28;20226;-67
2021/12/19 05:53:35;;;;;;;11.27;6.97;;;8.00;99.90;;;;;;4966268;28;20226;-67
2021/12/19 05:56:03;;;;;;;8.73;5.50;;;8.00;99.90;;;;;;4995728;28;20253;-66
2021/12/19 05:58:29;;;;;;;9.27;5.43;;;8.00;99.90;;;;;;4971527;28;20242;-66
2021/12/19 06:00:54;;;;;;;9.17;5.63;;;8.00;99.90;;;;;;5039522;28;20213;-66
2021/12/19 06:03:23;;;;;;;8.57;5.27;;;8.00;99.90;;;;;;5006107;28;20263;-66
2021/12/19 06:05:51;;;;;;;9.43;5.80;;;8.00;99.90;;;;;;4987818;28;20189;-67
2021/12/19 06:08:17;;;;;;;8.53;5.47;;;8.00;99.90;;;;;;4967409;28;20205;-66
2021/12/19 06:10:42;;;;;;;8.63;5.87;;;8.00;99.90;;;;;;4981284;28;20306;-66
2021/12/19 06:13:08;;;;;;;7.57;5.13;;;8.00;99.90;;;;;;4975886;28;20286;-66
2021/12/19 06:15:35;;;;;;;9.00;5.73;;;8.00;99.90;;;;;;4971919;28;20216;-66
2021/12/19 06:18:03;;;;;;;8.83;6.07;;;8.00;99.90;;;;;;4972505;28;20276;-66
2021/12/19 06:20:31;;;;;;;9.10;5.57;;;8.00;99.90;;;;;;4986357;28;20173;-66
2021/12/19 06:22:58;;;;;;;10.13;5.97;;;8.00;99.90;;;;;;5008642;28;20180;-66
2021/12/19 06:25:26;;;;;;;9.97;5.70;;;8.00;99.90;;;;;;5005399;28;20395;-66
2021/12/19 06:27:57;;;;;;;10.60;6.03;;;8.00;99.90;;;;;;4970985;28;20211;-67
2021/12/19 06:30:23;;;;;;;8.87;6.20;;;8.00;99.90;;;;;;4970109;28;20306;-67
2021/12/19 06:32:50;;;;;;;8.67;5.57;;;8.00;99.90;;;;;;4963474;28;20311;-66
2021/12/19 06:35:19;;;;;;;9.10;5.63;;;8.00;99.90;;;;;;4970077;28;20295;-65
2021/12/19 06:37:46;;;;;;;8.60;6.03;;;8.00;99.90;;;;;;4969547;28;20216;-67
2021/12/19 06:40:18;;;;;;;10.80;6.60;;;8.00;99.90;;;;;;4971725;28;20184;-67
2021/12/19 06:42:44;;;;;;;10.40;6.43;;;8.00;99.90;;;;;;4984143;28;20237;-66
2021/12/19 06:45:13;;;;;;;12.60;6.60;;;8.00;99.90;;;;;;4955627;28;20267;-67
2021/12/19 06:47:41;;;;;;;10.73;6.60;;;8.00;99.90;;;;;;4964538;28;20184;-65
2021/12/19 06:50:12;;;;;;;10.37;6.67;;;8.00;99.90;;;;;;4980477;28;20209;-67
2021/12/19 06:52:39;;;;;;;8.67;6.07;;;8.00;99.90;;;;;;4968573;28;20203;-66
2021/12/19 06:55:05;;;;;;;10.13;6.40;;;8.00;99.90;;;;;;4988624;28;20265;-67
2021/12/19 06:57:31;;;;;;;11.33;7.17;;;8.10;99.90;;;;;;4974184;28;20206;-67
2021/12/19 06:59:57;;;;;;;11.53;6.33;;;8.00;99.90;;;;;;4963171;28;20212;-66
2021/12/19 07:02:23;;;;;;;8.80;5.97;;;8.00;99.90;;;;;;4975854;28;20326;-67
2021/12/19 07:04:49;;;;;;;8.80;5.63;;;8.00;99.90;;;;;;4966109;28;20230;-68
2021/12/19 07:07:14;;;;;;;9.80;6.30;;;8.10;99.90;;;;;;4967859;28;20231;-68
2021/12/19 07:09:40;;;;;;;10.43;6.90;;;8.10;99.90;;;;;;4984945;28;20191;-67
2021/12/19 07:12:07;;;;;;;9.17;6.30;;;8.10;99.90;;;;;;4962934;28;20204;-63
2021/12/19 07:14:37;;;;;;;8.50;5.93;;;8.10;99.90;;;;;;4967960;28;20180;-67
2021/12/19 07:17:05;;;;;;;8.80;6.00;;;8.10;99.90;;;;;;4969057;28;20192;-67
2021/12/19 07:19:31;;;;;;;8.33;5.90;;;8.10;99.90;;;;;;4982781;28;20272;-67
2021/12/19 07:21:56;;;;;;;7.97;5.60;;;8.10;99.90;;;;;;4965306;28;20604;-66
2021/12/19 07:24:24;;;;;;;7.30;5.13;;;8.10;99.90;;;;;;4964968;28;20204;-66
2021/12/19 07:26:52;;;;;;;7.50;5.10;;;8.10;99.90;;;;;;4965876;28;20238;-67
2021/12/19 07:29:17;;;;;;;7.33;5.10;;;8.10;99.90;;;;;;4961726;28;20196;-68
2021/12/19 07:31:44;;;;;;;7.40;5.27;;;8.10;99.90;;;;;;4962502;28;20222;-66
2021/12/19 07:34:10;;;;;;;7.77;5.37;;;8.10;99.90;;;;;;4962584;28;20279;-67
2021/12/19 07:36:47;;;;;;;7.43;5.10;;;8.10;99.90;;;;;;4960558;28;20232;-67
2021/12/19 07:41:59;;;;;;;8.27;5.43;;;8.20;99.90;;;;;;4968699;28;20180;-66
2021/12/19 07:44:25;;;;;;;8.40;5.30;;;8.10;99.90;;;;;;4959028;28;20263;-67
2021/12/19 07:46:51;;;;;;;7.93;4.97;;;8.20;99.90;;;;;;4982161;28;20275;-67
2021/12/19 07:49:16;;;;;;;7.27;4.90;;;8.20;99.90;;;;;;4983583;28;20235;-68
2021/12/19 07:51:42;;;;;;;7.43;5.03;;;8.20;99.90;;;;;;4971719;28;20265;-67
2021/12/19 07:54:08;;;;;;;7.33;5.30;;;8.20;99.90;;;;;;4968851;28;20212;-66
2021/12/19 07:56:34;;;;;;;7.13;4.93;;;8.20;99.90;;;;;;4960762;28;20173;-67
2021/12/19 07:59:00;;;;;;;7.20;5.20;;;8.20;99.90;;;;;;4970449;28;20249;-68
2021/12/19 08:01:28;;;;;;;8.47;5.47;;;8.20;99.90;;;;;;4963921;28;20456;-67
2021/12/19 08:03:57;;;;;;;8.83;5.87;;;8.20;99.90;;;;;;4959561;28;20187;-67
2021/12/19 08:06:23;;;;;;;8.00;5.53;;;8.20;99.90;;;;;;4966198;28;20270;-67
2021/12/19 08:08:52;;;;;;;9.10;5.73;;;8.20;99.90;;;;;;4964660;28;20184;-67
2021/12/19 08:14:04;;;;;;;8.53;5.90;;;8.20;99.90;;;;;;4974890;28;20242;-67
2021/12/19 08:16:32;;;;;;;9.77;6.50;;;8.20;99.90;;;;;;4965008;28;20221;-67
2021/12/19 08:19:00;;;;;;;8.83;5.77;;;8.20;99.90;;;;;;4968916;28;20196;-66
2021/12/19 08:21:26;;;;;;;7.67;5.53;;;8.20;99.90;;;;;;4976274;28;20177;-67
2021/12/19 08:23:57;;;;;;;11.13;6.30;;;8.20;99.90;;;;;;4968036;28;20184;-67
2021/12/19 08:26:23;;;;;;;9.03;6.07;;;8.20;99.90;;;;;;4962820;28;20205;-67
2021/12/19 08:28:49;;;;;;;9.00;5.77;;;8.20;99.90;;;;;;5010293;28;20192;-68
2021/12/19 08:31:14;;;;;;;9.50;6.00;;;8.20;99.90;;;;;;4959807;28;20219;-67
2021/12/19 08:33:40;;;;;;;9.03;6.30;;;8.20;99.90;;;;;;4981620;28;20213;-67
2021/12/19 08:36:07;;;;;;;9.20;6.23;;;8.20;99.90;;;;;;4964279;28;20264;-67
2021/12/19 08:38:35;;;;;;;8.87;6.20;;;8.20;99.90;;;;;;4971183;28;20189;-67
2021/12/19 08:41:03;;;;;;;9.57;6.20;;;8.20;99.90;;;;;;4952957;28;20215;-66
2021/12/19 08:43:29;;;;;;;9.53;6.17;;;8.20;99.90;;;;;;4962582;28;20184;-67
2021/12/19 08:45:55;;;;;;;8.10;5.90;;;8.30;99.90;;;;;;4971898;28;20257;-66
2021/12/19 08:48:21;;;;;;;11.97;7.23;;;8.30;99.90;;;;;;4981932;28;20196;-67
2021/12/19 08:50:47;;;;;;;10.90;7.30;;;8.30;99.90;;;;;;4961744;28;20207;-67
2021/12/19 08:53:13;;;;;;;12.00;8.00;;;8.30;99.90;;;;;;4962903;28;20287;-67
2021/12/19 08:55:41;;;;;;;12.23;7.53;;;8.30;99.90;;;;;;4956259;28;20279;-67
2021/12/19 08:58:07;;;;;;;11.33;7.10;;;8.30;99.90;;;;;;4964612;28;20200;-67
2021/12/19 09:00:33;;;;;;;10.37;7.27;;;8.30;99.90;;;;;;4966779;28;20198;-67
2021/12/19 09:03:00;;;;;;;10.83;7.33;;;8.30;99.90;;;;;;4983792;28;20184;-67
2021/12/19 09:05:30;;;;;;;12.00;8.00;;;8.20;99.90;;;;;;4962869;28;20290;-67
2021/12/19 09:07:58;;;;;;;10.93;7.20;;;8.30;99.90;;;;;;4956108;28;20487;-67
2021/12/19 09:10:24;;;;;;;11.87;8.03;;;8.20;99.90;;;;;;4964043;28;20207;-67
2021/12/19 09:12:51;;;;;;;10.80;7.17;;;8.20;99.90;;;;;;4961181;28;20235;-66
2021/12/19 09:15:17;;;;;;;10.67;7.20;;;8.20;99.90;;;;;;4996552;28;20195;-67
2021/12/19 09:17:45;;;;;;;9.03;6.17;;;8.20;99.90;;;;;;5012484;28;20211;-67
2021/12/19 09:20:17;;;;;;;7.93;5.63;;;8.20;99.90;;;;;;4969834;28;20184;-67
2021/12/19 09:22:45;;;;;;;6.87;5.00;;;8.20;99.90;;;;;;4960032;28;20181;-67
2021/12/19 09:25:11;;;;;;;6.00;4.23;;;8.20;99.90;;;;;;4974971;28;20184;-67
2021/12/19 09:27:39;;;;;;;5.30;3.70;;;8.20;99.90;;;;;;4972345;28;20176;-67
2021/12/19 09:30:06;;;;;;;4.77;3.50;;;8.20;99.90;;;;;;4968835;28;20307;-67
2021/12/19 09:32:31;;;;;;;4.03;2.97;;;8.30;99.90;;;;;;4968421;28;20185;-67
2021/12/19 09:34:59;;;;;;;3.40;2.40;;;8.30;99.90;;;;;;4961209;28;20298;-65
2021/12/19 09:37:28;;;;;;;3.63;2.40;;;8.30;99.90;;;;;;4960650;28;20215;-67
2021/12/19 09:39:54;;;;;;;2.90;2.10;;;8.30;99.90;;;;;;4958582;28;20176;-67
2021/12/19 09:42:22;;;;;;;2.93;2.00;;;8.30;99.90;;;;;;4967580;28;20300;-67
2021/12/19 09:44:48;;;;;;;2.83;2.10;;;8.40;99.90;;;;;;4993375;28;20169;-67
2021/12/19 09:47:14;;;;;;;2.10;1.63;;;8.40;99.90;;;;;;4962217;28;20195;-66
2021/12/19 09:49:39;;;;;;;2.33;1.50;;;8.40;99.90;;;;;;4963067;28;20201;-66
2021/12/19 09:52:07;;;;;;;2.10;1.60;;;8.40;99.90;;;;;;4961116;28;20247;-67
2021/12/19 09:54:36;;;;;;;2.03;1.50;;;8.50;99.90;;;;;;4955515;28;20181;-68
2021/12/19 09:57:05;;;;;;;1.97;1.30;;;8.50;99.90;;;;;;4983903;28;20187;-67
2021/12/19 09:59:31;;;;;;;1.73;1.30;;;8.50;99.90;;;;;;4959398;28;20184;-67
2021/12/19 10:01:59;;;;;;;2.57;1.87;;;8.50;99.90;;;;;;4956098;28;20215;-67
2021/12/19 10:04:42;;;;;;;4.33;2.53;;;8.50;99.90;;;;;;4996601;28;20287;-67
2021/12/19 10:07:19;;;;;;;3.97;2.60;;;8.50;99.90;;;;;;4960336;28;20272;-67
2021/12/19 10:10:02;;;;;;;4.27;3.00;;;8.50;99.90;;;;;;4959922;28;20224;-67
2021/12/19 10:15:12;;;;;;;4.17;3.17;;;8.50;99.90;;;;;;4971791;28;20414;-67
2021/12/19 10:17:38;;;;;;;4.40;2.83;;;8.50;99.90;;;;;;4960649;28;20185;-67
2021/12/19 10:20:14;;;;;;;3.70;2.90;;;8.50;99.90;;;;;;4963350;28;20199;-67
2021/12/19 10:22:51;;;;;;;3.30;2.37;;;8.50;99.90;;;;;;4961392;28;20192;-67
2021/12/19 10:25:21;;;;;;;3.93;2.83;;;8.50;99.90;;;;;;4963913;28;20196;-67
2021/12/19 10:27:57;;;;;;;4.77;3.20;;;8.40;99.90;;;;;;4962493;28;20200;-67
2021/12/19 10:30:33;;;;;;;4.73;3.40;;;8.40;99.90;;;;;;4969942;28;20187;-67
2021/12/19 10:33:11;;;;;;;5.50;3.90;;;8.40;99.90;;;;;;4963751;28;20188;-67
2021/12/19 10:35:49;;;;;;;5.63;4.07;;;8.40;99.90;;;;;;4962777;28;20266;-67
2021/12/19 10:38:29;;;;;;;7.90;5.07;;;8.40;99.90;;;;;;4966550;28;20233;-67
2021/12/19 10:41:13;;;;;;;7.77;5.83;;;8.40;99.90;;;;;;4965914;28;20203;-67
2021/12/19 10:45:29;;;;;;;7.77;5.53;;;8.40;99.90;;;;;;4961427;28;20184;-67
2021/12/19 10:46:52;;;;;;;7.97;5.87;;;8.40;99.90;;;;;;4971271;28;20192;-67
2021/12/19 10:49:24;;;;;;;6.70;5.10;;;8.40;99.90;;;;;;4968463;28;20237;-67
2021/12/19 10:51:50;;;;;;;6.27;4.70;;;8.40;99.90;;;;;;4959951;28;20222;-66
2021/12/19 10:54:16;;;;;;;8.57;6.07;;;8.40;99.90;;;;;;4963619;28;20185;-66
2021/12/19 10:56:44;;;;;;;7.07;5.03;;;8.40;99.90;;;;;;4959650;28;20185;-66
2021/12/19 10:59:16;;;;;;;7.00;5.20;;;8.40;99.90;;;;;;4981681;28;20196;-66
2021/12/19 11:01:54;;;;;;;7.30;5.27;;;8.40;99.90;;;;;;4962635;28;20331;-66
2021/12/19 11:04:22;;;;;;;6.50;4.87;;;8.40;99.90;;;;;;4963752;28;20329;-67
2021/12/19 11:06:51;;;;;;;5.67;4.77;;;8.40;99.90;;;;;;4970834;28;20212;-67
2021/12/19 11:09:30;;;;;;;7.03;4.87;;;8.40;99.90;;;;;;4963361;28;20284;-67
2021/12/19 11:11:59;;;;;;;5.27;4.30;;;8.40;99.90;;;;;;4963640;28;20290;-66
2021/12/19 11:14:32;;;;;;;6.03;4.60;;;8.40;99.90;;;;;;4957119;28;20188;-66
2021/12/19 11:17:02;;;;;;;4.83;4.33;;;8.40;99.90;;;;;;4964028;28;20232;-67
2021/12/19 11:19:28;;;;;;;7.20;4.30;;;8.40;99.90;;;;;;4988635;28;20177;-66
2021/12/19 11:21:54;;;;;;;5.03;4.23;;;8.40;99.90;;;;;;4958899;28;20195;-66
2021/12/19 11:24:22;;;;;;;5.57;4.20;;;8.40;99.90;;;;;;4971394;28;20220;-66
2021/12/19 11:26:51;;;;;;;6.77;4.27;;;8.40;99.90;;;;;;4969630;28;20195;-67
2021/12/19 11:29:18;;;;;;;5.60;4.43;;;8.40;99.90;;;;;;4963024;28;20203;-65
2021/12/19 11:31:47;;;;;;;5.63;4.33;;;8.40;99.90;;;;;;4969124;28;20207;-66
2021/12/19 11:34:24;;;;;;;5.90;4.40;;;8.40;99.90;;;;;;4970503;28;20173;-66
2021/12/19 11:36:59;;;;;;;5.33;4.40;;;8.40;99.90;;;;;;4963898;28;20181;-66
2021/12/19 11:39:29;;;;;;;5.90;4.30;;;8.50;99.90;;;;;;4961584;28;20172;-67
2021/12/19 11:42:34;;;;;;;5.67;4.60;;;8.50;99.90;;;;;;4978284;28;20202;-66
2021/12/19 11:47:38;;;;;;;4.70;3.90;;;8.40;99.90;;;;;;4961747;28;20265;-66
2021/12/19 11:50:25;;;;;;;5.20;3.83;;;8.50;99.90;;;;;;4970786;28;20226;-67
2021/12/19 11:52:57;;;;;;;4.30;3.73;;;8.50;99.90;;;;;;4980797;28;20183;-67
2021/12/19 11:55:35;;;;;;;5.23;4.10;;;8.50;99.90;;;;;;4980924;28;20190;-68
2021/12/19 11:58:15;;;;;;;5.57;4.27;;;8.40;99.90;;;;;;4961446;28;20192;-68
2021/12/19 12:01:15;;;;;;;5.03;4.30;;;8.40;99.90;;;;;;4962273;28;20298;-69
2021/12/19 12:03:45;;;;;;;5.87;4.50;;;8.40;99.90;;;;;;4948076;28;20239;-69
2021/12/19 12:06:20;;;;;;;6.00;4.53;;;8.40;99.90;;;;;;4973570;28;20180;-68
2021/12/19 12:09:06;;;;;;;5.53;4.23;;;8.40;99.90;;;;;;4955762;28;20263;-67
2021/12/19 12:11:33;;;;;;;5.20;4.00;;;8.40;99.90;;;;;;4989607;28;20222;-67
2021/12/19 12:14:27;;;;;;;4.50;3.70;;;8.40;99.90;;;;;;4960758;28;20185;-68
2021/12/19 12:16:59;;;;;;;4.33;3.53;;;8.40;99.90;;;;;;4960214;28;20192;-67
2021/12/19 12:19:57;;;;;;;5.00;3.53;;;8.30;99.90;;;;;;4961844;28;20187;-68
2021/12/19 12:25:20;;;;;;;5.37;3.73;;;8.30;99.90;;;;;;4973459;28;20176;-68
2021/12/19 12:27:46;;;;;;;4.57;3.30;;;8.30;99.90;;;;;;4963048;28;20176;-69
2021/12/19 12:30:24;;;;;;;4.67;3.47;;;8.30;99.90;;;;;;4963559;28;20208;-68
2021/12/19 12:32:53;;;;;;;4.30;3.10;;;8.30;99.90;;;;;;4966547;28;20196;-67
2021/12/19 12:35:23;;;;;;;4.57;3.10;;;8.30;99.90;;;;;;4964012;28;20279;-69
2021/12/19 12:37:51;;;;;;;4.97;3.70;;;8.30;99.90;;;;;;4973063;28;20194;-68
2021/12/19 12:40:31;;;;;;;4.67;3.70;;;8.30;99.90;;;;;;4976229;28;20200;-68
2021/12/19 12:43:13;;;;;;;4.90;3.27;;;8.30;99.90;;;;;;4963020;28;20184;-68
2021/12/19 12:46:02;;;;;;;4.57;3.27;;;8.30;99.90;;;;;;4969094;28;20193;-68
2021/12/19 12:49:00;;;;;;;4.87;3.50;;;8.30;99.90;;;;;;4974968;28;20204;-68
2021/12/19 12:51:46;;;;;;;4.77;3.33;;;8.30;99.90;;;;;;4954434;28;20341;-68
2021/12/19 12:54:18;;;;;;;6.30;4.43;;;8.30;99.90;;;;;;4956217;28;20228;-68
2021/12/19 12:56:51;;;;;;;5.53;4.23;;;8.30;99.90;;;;;;4963923;28;20176;-68
2021/12/19 12:59:25;;;;;;;6.43;4.67;;;8.30;99.90;;;;;;4954638;28;20176;-69
2021/12/19 13:02:09;;;;;;;5.53;4.03;;;8.30;99.90;;;;;;4958869;28;20184;-68
2021/12/19 13:04:37;;;;;;;4.47;3.47;;;8.30;99.90;;;;;;4965173;28;20202;-68
2021/12/19 13:07:11;;;;;;;5.37;4.17;;;8.30;99.90;;;;;;4974954;28;20212;-68
2021/12/19 13:09:50;;;;;;;4.30;3.43;;;8.30;99.90;;;;;;4962675;28;20340;-68
2021/12/19 13:12:27;;;;;;;5.63;3.27;;;8.30;99.90;;;;;;4968351;28;20282;-68
2021/12/19 13:15:15;;;;;;;4.77;3.20;;;8.30;99.90;;;;;;4973186;28;20274;-68
2021/12/19 13:17:48;;;;;;;4.50;2.70;;;8.30;99.90;;;;;;4971165;28;20216;-68
2021/12/19 13:20:19;;;;;;;4.37;3.00;;;8.30;99.90;;;;;;4961125;28;20172;-68
2021/12/19 13:23:03;;;;;;;5.50;3.80;;;8.30;99.90;;;;;;4972190;28;20176;-68
2021/12/19 13:25:42;;;;;;;5.03;4.07;;;8.30;99.90;;;;;;4958800;28;20241;-67
2021/12/19 13:28:20;;;;;;;6.57;4.80;;;8.30;99.90;;;;;;4955224;28;20187;-67
2021/12/19 13:30:50;;;;;;;5.87;4.47;;;8.30;99.90;;;;;;4970181;28;20311;-68
2021/12/19 13:33:21;;;;;;;6.77;4.80;;;8.30;99.90;;;;;;4966907;28;20177;-67
2021/12/19 13:35:46;;;;;;;7.07;5.17;;;8.40;99.90;;;;;;4963104;28;20190;-66
2021/12/19 13:38:20;;;;;;;5.47;4.50;;;8.40;99.90;;;;;;4964441;28;20324;-67
2021/12/19 13:40:55;;;;;;;5.20;4.40;;;8.40;99.90;;;;;;4960963;28;20200;-67
2021/12/19 13:43:25;;;;;;;5.03;4.00;;;8.40;99.90;;;;;;4961920;28;20191;-67
2021/12/19 13:45:59;;;;;;;5.27;4.00;;;8.40;99.90;;;;;;4967343;28;20268;-67
2021/12/19 13:48:38;;;;;;;5.53;3.83;;;8.50;99.90;;;;;;4985898;28;20172;-66
2021/12/19 13:51:12;;;;;;;5.53;4.37;;;8.50;99.90;;;;;;4961915;28;20299;-68
2021/12/19 13:53:40;;;;;;;7.33;5.60;;;8.50;99.90;;;;;;4965214;28;20167;-67
2021/12/19 13:56:07;;;;;;;6.50;4.80;;;8.50;99.90;;;;;;4968061;28;20248;-68
2021/12/19 13:58:35;;;;;;;7.63;5.60;;;8.50;99.90;;;;;;4970399;28;20200;-68
2021/12/19 14:01:23;;;;;;;7.33;5.50;;;8.50;99.90;;;;;;4962710;28;20185;-68
2021/12/19 14:03:49;;;;;;;6.30;5.00;;;8.50;99.90;;;;;;4984744;28;20187;-67
2021/12/19 14:06:22;;;;;;;8.77;6.27;;;8.50;99.90;;;;;;4993139;28;20192;-67
2021/12/19 14:09:00;;;;;;;7.43;5.60;;;8.50;99.90;;;;;;4972042;28;20256;-66
2021/12/19 14:11:29;;;;;;;9.07;6.97;;;8.50;99.90;;;;;;4968798;28;20362;-67
2021/12/19 14:14:32;;;;;;;7.63;6.00;;;8.50;99.90;;;;;;4979860;28;20221;-67
2021/12/19 14:17:08;;;;;;;7.23;5.80;;;8.50;99.90;;;;;;4973642;28;20192;-68
2021/12/19 14:19:41;;;;;;;8.63;6.77;;;8.50;99.90;;;;;;4966934;28;20172;-68